Valley Springs, South Dakota
Current Conditions -  °F | °C
As of 12:34 AM on Friday 31 Oct 2014 (Local Time) from KLYV Reporting Station
Clear Clear  
Wind Chill: -5°   Ceiling: Unl
Heat Index:   Visibility: 10mi
Dew Point: -6°   Wind: 13mph
Humidity: 64%   Direction: 360°N
Pressure: 30.46"   Gusts: NA
Location:  43.58°N, 96.47°W
Report Text: KLYV 310534Z AUTO 36011KT 10SM CLR 00/M06 A3046 RMK AO2
Loading
Personal Weather Stations






























Interactive Weather Map
Tropical Storm Tracking
New forecast layout! Learn more

10-Day Weather Forecast

Advertisements
Track Severe Weather on mobile